Time;durP1;ratioP1;P1;durP2;ratioP2;P2;SDS_P1;SDS_P2;PMS_P1;PMS_P2;Temp;Humidity;BMP_temperature;BMP_pressure;BME280_temperature;BME280_humidity;BME280_pressure;Samples;Min_cycle;Max_cycle;Signal;HPM_P1;HPM_P2
2022/01/20 00:00:14;;;;;;;8.85;1.30;;;;;;;4.77;73.96;102580.41;5027510;28;20399;-57
2022/01/20 00:02:35;;;;;;;12.13;1.38;;;;;;;4.72;74.12;102582.06;5025686;28;20493;-58
2022/01/20 00:05:11;;;;;;;11.65;1.70;;;;;;;4.66;74.78;102582.81;5027420;28;20026;-57
2022/01/20 00:26:29;;;;;;;20.83;2.30;;;;;;;4.66;77.17;102614.16;5026610;28;20544;-58
2022/01/20 00:28:58;;;;;;;13.50;3.38;;;;;;;4.68;77.47;102622.91;5025519;28;20025;-59
2022/01/20 00:33:55;;;;;;;27.25;2.60;;;;;;;4.66;78.17;102608.94;5019354;28;20132;-58
2022/01/20 00:39:01;;;;;;;16.83;2.20;;;;;;;4.83;76.96;102612.72;5007013;28;20029;-56
2022/01/20 00:41:26;;;;;;;27.45;2.88;;;;;;;4.89;76.83;102605.00;5019620;28;20092;-58
2022/01/20 00:43:52;;;;;;;16.30;2.22;;;;;;;4.88;76.42;102616.31;5006826;28;20037;-58
2022/01/20 00:46:17;;;;;;;22.15;3.45;;;;;;;4.90;75.80;102612.88;5005415;28;20436;-59
2022/01/20 00:48:42;;;;;;;16.92;2.10;;;;;;;4.93;75.19;102614.66;5006561;28;20026;-58
2022/01/20 00:51:08;;;;;;;24.63;3.28;;;;;;;4.91;73.92;102613.75;5017112;28;20037;-59
2022/01/20 00:53:34;;;;;;;14.15;2.83;;;;;;;4.91;73.02;102604.16;5013994;28;20508;-58
2022/01/20 00:55:59;;;;;;;19.83;3.45;;;;;;;4.98;72.23;102613.00;5003850;28;20030;-56
2022/01/20 00:58:24;;;;;;;11.45;1.98;;;;;;;5.08;71.92;102626.25;5007604;28;20026;-58
2022/01/20 01:00:50;;;;;;;17.42;2.38;;;;;;;5.15;72.35;102638.56;4990486;28;20400;-58
2022/01/20 01:03:15;;;;;;;14.50;2.30;;;;;;;5.11;73.86;102639.34;5022208;28;20065;-57
2022/01/20 01:05:55;;;;;;;12.15;1.73;;;;;;;5.06;75.03;102628.84;5026732;28;20491;-57
2022/01/20 01:08:21;;;;;;;7.38;1.48;;;;;;;4.95;75.53;102627.75;5026076;28;20086;-57
2022/01/20 01:10:49;;;;;;;16.02;1.80;;;;;;;4.88;75.83;102622.41;5026043;28;20528;-59
2022/01/20 01:13:17;;;;;;;12.13;2.15;;;;;;;4.84;76.30;102630.16;5025879;28;20199;-63
2022/01/20 01:15:46;;;;;;;13.48;1.77;;;;;;;4.84;76.44;102622.34;5027359;28;20018;-57
2022/01/20 01:23:30;;;;;;;15.80;2.00;;;;;;;4.84;77.15;102622.34;5024963;28;20033;-57
2022/01/20 01:25:56;;;;;;;14.75;2.22;;;;;;;4.87;77.13;102627.59;5006022;28;20030;-56
2022/01/20 01:28:25;;;;;;;11.60;1.52;;;;;;;4.90;77.02;102625.03;5006190;28;20009;-56
2022/01/20 01:33:30;;;;;;;9.75;1.60;;;;;;;4.83;77.72;102641.44;5007285;28;20038;-59
2022/01/20 01:35:58;;;;;;;13.63;2.10;;;;;;;4.84;78.04;102638.88;5018672;28;20501;-58
2022/01/20 01:38:35;;;;;;;17.08;2.33;;;;;;;4.85;78.20;102642.38;5026426;28;20029;-60
2022/01/20 01:41:03;;;;;;;12.45;1.95;;;;;;;4.87;77.93;102630.19;5024670;28;20692;-57
2022/01/20 01:43:31;;;;;;;19.70;2.30;;;;;;;4.84;77.56;102622.34;5026519;28;20384;-57
2022/01/20 01:45:56;;;;;;;19.33;1.95;;;;;;;4.80;77.19;102642.28;5025392;28;20033;-56
2022/01/20 01:48:21;;;;;;;13.38;1.70;;;;;;;4.82;77.40;102640.59;5024791;28;20446;-56
2022/01/20 01:50:47;;;;;;;11.90;2.42;;;;;;;4.82;77.08;102648.44;5025126;28;20526;-56
2022/01/20 01:53:14;;;;;;;18.50;2.53;;;;;;;4.87;76.77;102653.72;5026682;28;20034;-58
2022/01/20 01:55:40;;;;;;;14.90;2.00;;;;;;;4.83;76.21;102644.06;5025053;28;20025;-57
2022/01/20 01:58:05;;;;;;;13.57;2.47;;;;;;;4.85;75.13;102639.75;5007269;28;20038;-57
2022/01/20 02:00:31;;;;;;;17.63;3.20;;;;;;;4.87;74.84;102645.88;5011588;28;20045;-58
2022/01/20 02:02:58;;;;;;;21.67;3.40;;;;;;;4.85;74.18;102650.22;5029637;28;20233;-58
2022/01/20 02:05:23;;;;;;;23.90;2.70;;;;;;;4.83;73.94;102650.16;5029051;28;20399;-56
2022/01/20 02:21:06;;;;;;;24.40;3.00;;;;;;;4.75;72.17;102639.56;5064205;28;20493;-56
2022/01/20 02:23:32;;;;;;;27.35;3.60;;;;;;;4.75;72.14;102642.19;5069036;28;20119;-58
2022/01/20 02:25:58;;;;;;;29.23;3.85;;;;;;;4.69;71.91;102642.06;5068472;28;20031;-57
2022/01/20 02:28:23;;;;;;;24.83;3.70;;;;;;;4.69;71.73;102639.44;5068470;28;20033;-56
2022/01/20 02:30:48;;;;;;;27.73;3.25;;;;;;;4.69;71.90;102642.06;5069200;28;20098;-59
2022/01/20 02:33:19;;;;;;;30.70;4.35;;;;;;;4.70;71.75;102638.63;5059642;28;20021;-57
2022/01/20 02:35:49;;;;;;;24.23;3.75;;;;;;;4.71;72.03;102631.63;5067585;28;20422;-58
2022/01/20 02:38:28;;;;;;;27.75;3.28;;;;;;;4.68;72.15;102629.84;5057665;28;20032;-56
2022/01/20 02:46:21;;;;;;;27.63;3.05;;;;;;;4.61;71.67;102639.28;5059858;28;20110;-59
2022/01/20 02:48:46;;;;;;;21.42;4.00;;;;;;;4.60;71.99;102632.31;5048022;28;20574;-57
2022/01/20 02:51:12;;;;;;;24.75;3.85;;;;;;;4.60;72.01;102628.84;5049538;28;20025;-57
2022/01/20 02:53:37;;;;;;;40.90;4.70;;;;;;;4.56;72.19;102622.66;5048419;28;20024;-57
2022/01/20 02:56:03;;;;;;;21.67;3.58;;;;;;;4.55;72.18;102620.91;5049602;28;20483;-57
2022/01/20 02:58:28;;;;;;;23.10;3.03;;;;;;;4.50;72.38;102623.44;5053070;28;20352;-57
2022/01/20 03:00:54;;;;;;;34.15;3.95;;;;;;;4.47;72.47;102625.97;5065620;28;20028;-56
2022/01/20 03:03:19;;;;;;;27.98;3.60;;;;;;;4.43;72.98;102624.16;5057980;28;20493;-57
2022/01/20 03:05:45;;;;;;;15.70;3.50;;;;;;;4.51;72.73;102638.22;5060575;28;20029;-58
2022/01/20 03:08:10;;;;;;;30.55;3.33;;;;;;;4.62;72.39;102628.00;5052158;28;20024;-56
2022/01/20 03:10:37;;;;;;;25.75;3.83;;;;;;;4.70;72.23;102635.13;5046656;28;20036;-56
2022/01/20 03:13:02;;;;;;;22.17;3.97;;;;;;;4.74;71.81;102648.25;5056105;28;20510;-57
2022/01/20 03:15:28;;;;;;;19.50;3.00;;;;;;;4.82;71.42;102639.69;5067807;28;20111;-56
2022/01/20 03:17:53;;;;;;;34.00;3.55;;;;;;;4.89;71.53;102631.13;5058538;28;20485;-56
2022/01/20 03:20:19;;;;;;;15.50;2.75;;;;;;;4.96;72.27;102645.19;5056913;28;20360;-56
2022/01/20 03:22:44;;;;;;;21.00;2.40;;;;;;;4.93;74.92;102656.44;5058923;28;20435;-57
2022/01/20 03:25:11;;;;;;;23.00;3.38;;;;;;;4.74;76.19;102636.94;5067770;28;20532;-58
2022/01/20 03:27:38;;;;;;;18.95;2.42;;;;;;;4.70;75.63;102645.56;5063521;28;20047;-57
2022/01/20 03:30:05;;;;;;;23.23;3.67;;;;;;;4.66;75.33;102636.78;5061918;28;20029;-58
2022/01/20 03:32:30;;;;;;;8.75;1.90;;;;;;;4.61;75.72;102641.91;5046909;28;20052;-56
2022/01/20 03:34:56;;;;;;;14.23;2.60;;;;;;;4.61;75.72;102647.13;5076083;28;20437;-59
2022/01/20 03:37:21;;;;;;;14.77;2.40;;;;;;;4.49;76.00;102650.34;5071671;28;20032;-57
2022/01/20 03:39:46;;;;;;;17.58;2.55;;;;;;;4.47;75.58;102645.97;5056737;28;20104;-58
2022/01/20 03:42:12;;;;;;;12.35;1.92;;;;;;;4.46;75.18;102658.16;5047657;28;20116;-57
2022/01/20 03:44:37;;;;;;;13.25;1.70;;;;;;;4.45;74.77;102666.81;5046810;28;20035;-57
2022/01/20 03:47:03;;;;;;;12.73;1.77;;;;;;;4.48;74.64;102676.47;5061347;28;20032;-57
2022/01/20 03:49:39;;;;;;;18.88;2.30;;;;;;;4.48;74.83;102693.00;5067801;28;20032;-58
2022/01/20 03:52:06;;;;;;;13.45;1.90;;;;;;;4.43;77.17;102685.06;5051866;28;20489;-57
2022/01/20 03:54:31;;;;;;;5.93;1.35;;;;;;;4.38;78.50;102698.84;5066934;28;20486;-58
2022/01/20 03:56:56;;;;;;;14.68;1.98;;;;;;;4.29;78.58;102686.47;5066745;28;20044;-56
2022/01/20 03:59:22;;;;;;;7.85;1.13;;;;;;;4.19;78.75;102669.75;5049010;28;20032;-57
2022/01/20 04:01:47;;;;;;;11.77;1.60;;;;;;;4.15;79.01;102684.44;5067623;28;20364;-58
2022/01/20 04:04:13;;;;;;;7.40;1.00;;;;;;;4.10;79.84;102703.47;5065466;28;20386;-58
2022/01/20 04:06:38;;;;;;;13.48;2.05;;;;;;;4.01;80.58;102710.19;5049949;28;20032;-58
2022/01/20 04:09:03;;;;;;;18.00;1.95;;;;;;;3.97;80.17;102695.31;5065710;28;20632;-57
2022/01/20 04:11:29;;;;;;;7.80;1.60;;;;;;;3.76;78.87;102691.38;5065036;28;20048;-56
2022/01/20 04:13:55;;;;;;;9.43;1.20;;;;;;;3.64;78.90;102696.25;5067290;28;20036;-55
2022/01/20 04:16:39;;;;;;;6.55;1.20;;;;;;;3.56;78.64;102688.28;5066283;28;20025;-58
2022/01/20 04:19:10;;;;;;;7.38;1.20;;;;;;;3.53;78.77;102694.25;5049153;28;20032;-57
2022/01/20 04:21:37;;;;;;;10.10;1.85;;;;;;;3.46;78.64;102697.56;5065548;28;20104;-55
2022/01/20 04:24:04;;;;;;;14.35;1.80;;;;;;;3.51;78.66;102714.22;5065208;28;20025;-56
2022/01/20 04:26:29;;;;;;;10.20;1.77;;;;;;;3.51;78.74;102715.94;5066390;28;20474;-57
2022/01/20 04:28:56;;;;;;;10.15;1.58;;;;;;;3.45;79.29;102707.94;5083004;28;20111;-56
2022/01/20 04:31:25;;;;;;;12.43;2.00;;;;;;;3.50;79.37;102719.38;5087025;28;20118;-57
2022/01/20 04:33:51;;;;;;;9.67;1.30;;;;;;;3.52;79.39;102715.97;5069258;28;20046;-57
2022/01/20 04:36:17;;;;;;;17.42;2.03;;;;;;;3.49;79.52;102726.31;5086752;28;20262;-56
2022/01/20 04:38:42;;;;;;;14.45;1.73;;;;;;;3.50;79.84;102720.28;5087595;28;20063;-55
2022/01/20 04:41:08;;;;;;;18.90;3.55;;;;;;;3.46;80.19;102723.63;5087244;28;20043;-54
2022/01/20 04:43:33;;;;;;;10.18;2.08;;;;;;;3.50;80.25;102720.28;5086818;28;20458;-56
2022/01/20 04:46:16;;;;;;;13.55;2.45;;;;;;;3.56;80.13;102729.97;5044705;28;20441;-54
2022/01/20 04:48:59;;;;;;;17.02;2.05;;;;;;;3.64;79.65;102728.44;5048305;28;20036;-55
2022/01/20 04:59:37;;;;;;;26.95;3.75;;;;;;;3.71;79.79;102776.44;5066974;28;20040;-55
2022/01/20 05:02:02;;;;;;;25.15;3.90;;;;;;;3.73;77.56;102776.47;5065485;28;20033;-55
2022/01/20 05:04:28;;;;;;;23.40;3.65;;;;;;;3.71;76.88;102760.78;5065098;28;20450;-57
2022/01/20 05:06:55;;;;;;;20.70;3.45;;;;;;;3.68;77.19;102760.69;5066725;28;20032;-55
2022/01/20 05:09:22;;;;;;;21.77;3.63;;;;;;;3.59;76.16;102769.16;5065121;28;20020;-55
2022/01/20 05:11:57;;;;;;;29.05;3.53;;;;;;;3.72;75.92;102774.69;5066309;28;20044;-56
2022/01/20 05:14:22;;;;;;;25.52;4.07;;;;;;;3.69;75.88;102761.56;5066352;28;20035;-57
2022/01/20 05:16:48;;;;;;;31.98;3.90;;;;;;;3.67;75.69;102766.75;5065682;28;20029;-55
2022/01/20 05:19:13;;;;;;;21.55;2.70;;;;;;;3.70;75.28;102763.34;5066225;28;20020;-57
2022/01/20 05:21:39;;;;;;;41.03;4.68;;;;;;;3.62;75.72;102773.56;5065995;28;20036;-54
2022/01/20 05:24:04;;;;;;;26.83;3.58;;;;;;;3.65;75.71;102782.34;5064762;28;20084;-57
2022/01/20 05:26:29;;;;;;;32.13;4.15;;;;;;;3.62;75.69;102787.50;5064217;28;20399;-54
2022/01/20 05:28:54;;;;;;;29.42;3.40;;;;;;;3.63;75.19;102781.44;5062919;28;20024;-56
2022/01/20 05:31:20;;;;;;;25.13;3.40;;;;;;;3.68;74.57;102786.78;5066442;28;20032;-55
2022/01/20 05:33:45;;;;;;;27.90;3.70;;;;;;;3.70;73.91;102786.81;5067702;28;20442;-57
2022/01/20 05:36:10;;;;;;;27.17;4.35;;;;;;;3.70;73.22;102787.69;5070144;28;20060;-54
2022/01/20 05:38:36;;;;;;;21.63;4.10;;;;;;;3.74;72.40;102792.16;5069463;28;20119;-54
2022/01/20 05:41:01;;;;;;;28.02;3.83;;;;;;;3.78;72.25;102794.00;5069827;28;20016;-55
2022/01/20 05:43:26;;;;;;;40.03;5.05;;;;;;;3.84;71.78;102802.81;5069261;28;20033;-52
2022/01/20 05:45:52;;;;;;;27.60;2.85;;;;;;;3.88;70.97;102809.84;5069961;28;20433;-54
2022/01/20 05:48:21;;;;;;;26.92;3.40;;;;;;;3.86;70.69;102803.75;5069774;28;20050;-55
2022/01/20 05:50:46;;;;;;;34.10;3.58;;;;;;;3.90;70.21;102805.56;5069290;28;20017;-53
2022/01/20 05:53:12;;;;;;;22.08;2.92;;;;;;;3.92;70.02;102819.56;5069395;28;20055;-57
2022/01/20 05:55:38;;;;;;;22.65;3.40;;;;;;;3.99;68.46;102808.44;5069465;28;20195;-53
2022/01/20 05:58:07;;;;;;;17.77;2.58;;;;;;;4.00;68.84;102812.78;5069231;28;20079;-55
2022/01/20 06:00:33;;;;;;;21.55;2.55;;;;;;;4.02;68.05;102828.50;5068536;28;20024;-57
2022/01/20 06:05:43;;;;;;;24.35;2.85;;;;;;;4.07;66.45;102826.91;5068634;28;20043;-55
2022/01/20 06:08:08;;;;;;;19.08;2.90;;;;;;;4.11;66.17;102822.63;5069318;28;20374;-54
2022/01/20 06:10:34;;;;;;;18.33;3.00;;;;;;;4.13;66.20;102828.78;5069436;28;20550;-55
2022/01/20 06:13:00;;;;;;;22.15;3.75;;;;;;;4.12;65.57;102829.63;5067856;28;20041;-56
2022/01/20 06:15:25;;;;;;;26.85;2.72;;;;;;;4.11;65.57;102828.72;5069469;28;20082;-57
2022/01/20 06:17:50;;;;;;;13.35;2.63;;;;;;;4.14;65.69;102827.91;5068441;28;20017;-57
2022/01/20 06:20:16;;;;;;;20.77;3.03;;;;;;;4.16;65.60;102836.69;5069526;28;20021;-55
2022/01/20 06:22:41;;;;;;;17.30;2.35;;;;;;;4.16;66.13;102836.69;5069462;28;20024;-53
2022/01/20 06:25:07;;;;;;;15.73;2.67;;;;;;;4.09;66.70;102840.84;5068795;28;20033;-54
2022/01/20 06:27:33;;;;;;;21.15;2.97;;;;;;;4.05;67.55;102833.78;5050561;28;20028;-56
2022/01/20 06:29:59;;;;;;;18.45;3.85;;;;;;;4.01;67.74;102847.59;5050977;28;20028;-55
2022/01/20 06:32:24;;;;;;;15.45;2.90;;;;;;;3.98;67.39;102858.84;5069205;28;20036;-56
2022/01/20 06:34:49;;;;;;;16.42;2.00;;;;;;;3.90;66.95;102849.91;5066314;28;20017;-57
2022/01/20 06:37:15;;;;;;;18.70;2.40;;;;;;;3.91;67.02;102851.69;5068266;28;20100;-60
2022/01/20 06:39:40;;;;;;;14.48;2.50;;;;;;;3.85;67.32;102859.38;5066963;28;20039;-58
2022/01/20 06:42:06;;;;;;;18.00;3.05;;;;;;;3.70;67.86;102852.88;5068510;28;20053;-57
2022/01/20 06:44:32;;;;;;;18.17;2.15;;;;;;;3.62;68.22;102859.59;5050249;28;20036;-57
2022/01/20 06:46:57;;;;;;;8.40;1.73;;;;;;;3.56;66.64;102859.44;5067348;28;20020;-55
2022/01/20 06:49:23;;;;;;;13.25;2.08;;;;;;;3.47;67.04;102860.94;5068137;28;20044;-58
2022/01/20 06:51:48;;;;;;;10.18;1.90;;;;;;;3.38;67.26;102871.09;5064545;28;20115;-56
2022/01/20 06:54:14;;;;;;;16.10;2.15;;;;;;;3.26;67.47;102867.31;5068456;28;20029;-56
2022/01/20 06:56:43;;;;;;;11.30;1.65;;;;;;;3.17;67.97;102874.84;5068063;28;20025;-56
2022/01/20 06:59:12;;;;;;;8.77;2.37;;;;;;;3.01;68.53;102890.00;5062558;28;20024;-57
2022/01/20 07:01:39;;;;;;;19.90;2.90;;;;;;;2.98;68.85;102881.22;5066942;28;20020;-55
2022/01/20 07:04:04;;;;;;;16.02;1.95;;;;;;;2.94;69.01;102894.97;5065846;28;20040;-55
2022/01/20 07:06:30;;;;;;;8.93;2.03;;;;;;;2.94;68.81;102890.66;5068538;28;20024;-56
2022/01/20 07:08:55;;;;;;;12.07;2.88;;;;;;;3.00;69.36;102906.47;5066378;28;20407;-56
2022/01/20 07:11:20;;;;;;;20.13;2.38;;;;;;;3.03;69.24;102926.50;5068044;28;20540;-55
2022/01/20 07:13:46;;;;;;;26.13;3.33;;;;;;;3.04;69.93;102928.28;5067993;28;20113;-56
2022/01/20 07:16:11;;;;;;;10.45;1.85;;;;;;;3.01;71.01;102923.00;5067696;28;20392;-57
2022/01/20 07:18:36;;;;;;;10.43;2.47;;;;;;;3.01;70.76;102913.44;5067333;28;20059;-57
2022/01/20 07:21:02;;;;;;;11.65;2.10;;;;;;;2.94;71.02;102924.50;5066710;28;20017;-60
2022/01/20 07:23:27;;;;;;;15.57;1.83;;;;;;;2.96;71.04;102916.75;5067672;28;20021;-56
2022/01/20 07:25:53;;;;;;;10.15;2.72;;;;;;;2.97;71.76;102914.19;5066861;28;20039;-58
2022/01/20 07:28:18;;;;;;;15.00;1.92;;;;;;;2.96;71.87;102907.22;5067754;28;20156;-55
2022/01/20 07:30:43;;;;;;;15.60;2.40;;;;;;;2.88;72.21;102906.06;5049878;28;20103;-55
2022/01/20 07:33:10;;;;;;;14.68;2.13;;;;;;;2.82;72.31;102900.66;5062639;28;20483;-54
2022/01/20 07:35:36;;;;;;;11.18;1.70;;;;;;;2.81;72.47;102917.13;5053552;28;20048;-57
2022/01/20 07:38:02;;;;;;;19.45;2.30;;;;;;;2.78;73.00;102916.22;5061887;28;20167;-55
2022/01/20 07:40:28;;;;;;;11.40;2.17;;;;;;;2.83;72.80;102916.34;5046479;28;20390;-54
2022/01/20 07:42:53;;;;;;;15.50;2.50;;;;;;;2.89;72.56;102928.69;5056592;28;20033;-52
2022/01/20 07:45:21;;;;;;;15.20;2.03;;;;;;;2.90;72.38;102940.88;5056236;28;20052;-55
2022/01/20 07:47:47;;;;;;;17.92;2.95;;;;;;;2.96;71.71;102941.06;5058023;28;20052;-55
2022/01/20 07:50:12;;;;;;;13.95;2.50;;;;;;;2.97;71.10;102945.44;5065978;28;20569;-53
2022/01/20 07:52:37;;;;;;;12.13;2.65;;;;;;;3.07;71.14;102941.41;5063635;28;20039;-52
2022/01/20 07:55:03;;;;;;;8.50;1.90;;;;;;;3.15;70.32;102952.97;5064577;28;20032;-57
2022/01/20 07:57:28;;;;;;;17.67;2.55;;;;;;;3.25;68.86;102950.66;5064768;28;20023;-56
2022/01/20 07:59:54;;;;;;;18.27;2.58;;;;;;;3.25;67.62;102963.69;5063768;28;20448;-54
2022/01/20 08:02:19;;;;;;;13.52;2.20;;;;;;;3.27;67.21;102961.97;5063304;28;20112;-54
2022/01/20 08:04:44;;;;;;;10.55;2.17;;;;;;;3.24;66.62;102961.88;5063523;28;20523;-51
2022/01/20 08:07:10;;;;;;;15.15;2.83;;;;;;;3.19;66.65;102959.13;5066875;28;20493;-50
2022/01/20 08:09:35;;;;;;;17.70;2.15;;;;;;;3.14;66.68;102961.63;5066248;28;20052;-53
2022/01/20 08:12:00;;;;;;;10.93;2.15;;;;;;;3.17;66.50;102955.63;5066050;28;20040;-55
2022/01/20 08:14:28;;;;;;;14.80;2.15;;;;;;;3.16;66.54;102949.50;5066470;28;20025;-53
2022/01/20 08:16:53;;;;;;;15.35;1.98;;;;;;;3.29;66.43;102957.72;5065941;28;20015;-55
2022/01/20 08:19:18;;;;;;;10.30;1.60;;;;;;;3.34;66.27;102966.53;5066582;28;20029;-56
2022/01/20 08:21:43;;;;;;;13.40;2.33;;;;;;;3.42;66.49;102961.56;5066799;28;20008;-52
2022/01/20 08:24:09;;;;;;;14.18;2.33;;;;;;;3.50;66.56;102962.69;5061316;28;20047;-49
2022/01/20 08:26:34;;;;;;;10.32;1.95;;;;;;;3.58;65.24;102956.84;5065937;28;20036;-49
2022/01/20 08:28:59;;;;;;;9.88;1.50;;;;;;;3.63;65.08;102960.44;5058134;28;20039;-57
2022/01/20 08:31:25;;;;;;;14.60;2.38;;;;;;;3.66;64.34;102956.22;5065995;28;20029;-55
2022/01/20 08:33:50;;;;;;;19.00;2.00;;;;;;;3.74;64.36;102953.84;5066682;28;20410;-57
2022/01/20 08:36:15;;;;;;;20.05;2.30;;;;;;;3.73;64.38;102962.47;5066317;28;20032;-57
2022/01/20 08:38:41;;;;;;;13.63;2.47;;;;;;;3.78;64.39;102966.13;5066492;28;20031;-56
2022/01/20 08:41:06;;;;;;;12.80;2.65;;;;;;;3.89;64.02;102961.19;5064086;28;20025;-57
2022/01/20 08:43:38;;;;;;;16.60;2.80;;;;;;;3.88;64.12;102969.84;5065537;28;20395;-54
2022/01/20 08:46:06;;;;;;;10.65;2.00;;;;;;;3.94;63.80;102976.97;5060773;28;20073;-56
2022/01/20 08:48:31;;;;;;;16.55;2.65;;;;;;;4.03;63.76;102976.34;5052838;28;20113;-58
2022/01/20 08:50:57;;;;;;;17.75;2.42;;;;;;;4.08;63.14;102990.41;5053402;28;20425;-59
2022/01/20 08:53:22;;;;;;;18.20;2.17;;;;;;;4.07;62.07;102993.88;5051086;28;20658;-58
2022/01/20 08:55:48;;;;;;;18.20;2.25;;;;;;;4.11;62.39;103006.16;5050247;28;20021;-57
2022/01/20 08:58:13;;;;;;;16.50;3.33;;;;;;;4.11;62.83;103006.16;5049593;28;20074;-56
2022/01/20 09:00:39;;;;;;;19.83;3.08;;;;;;;4.13;62.18;103009.69;5045791;28;20108;-57
2022/01/20 09:03:05;;;;;;;18.35;2.90;;;;;;;4.17;62.58;103011.56;5047341;28;20024;-56
2022/01/20 09:05:30;;;;;;;23.30;2.80;;;;;;;4.24;63.33;103014.34;5048954;28;20082;-57
2022/01/20 09:07:56;;;;;;;18.58;2.88;;;;;;;4.23;63.16;103021.28;5051114;28;20032;-56
2022/01/20 09:10:21;;;;;;;18.25;2.83;;;;;;;4.26;63.29;103023.06;5053635;28;20036;-51
2022/01/20 09:15:31;;;;;;;16.98;2.75;;;;;;;4.26;63.14;103031.81;5056426;28;20033;-56
2022/01/20 09:18:03;;;;;;;15.88;3.03;;;;;;;4.31;62.51;103039.78;5052993;28;20028;-56
2022/01/20 09:20:29;;;;;;;11.68;2.20;;;;;;;4.42;62.71;103053.09;5053950;28;20120;-56
2022/01/20 09:22:55;;;;;;;15.10;3.50;;;;;;;4.52;62.56;103046.41;5053326;28;20035;-54
2022/01/20 09:25:21;;;;;;;19.73;2.70;;;;;;;4.53;62.66;103054.28;5054705;28;20017;-52
2022/01/20 09:27:47;;;;;;;18.95;4.72;;;;;;;4.53;61.56;103046.47;5054505;28;20009;-53
2022/01/20 09:30:18;;;;;;;13.88;2.63;;;;;;;4.62;61.16;103050.16;5065667;28;20039;-54
2022/01/20 09:32:43;;;;;;;13.43;2.45;;;;;;;4.58;61.73;103054.44;5070170;28;20067;-53
2022/01/20 09:35:09;;;;;;;19.27;2.45;;;;;;;4.63;61.85;103057.13;5068995;28;20020;-53
2022/01/20 09:37:36;;;;;;;20.40;3.53;;;;;;;4.59;61.55;103060.50;5061157;28;20025;-55
2022/01/20 09:40:01;;;;;;;15.70;2.20;;;;;;;4.61;62.01;103053.63;5050268;28;20017;-55
2022/01/20 09:42:27;;;;;;;13.77;2.38;;;;;;;4.60;61.92;103049.25;5054171;28;20035;-55
2022/01/20 09:44:55;;;;;;;24.60;3.08;;;;;;;4.60;60.91;103049.25;5060857;28;20409;-54
2022/01/20 09:47:20;;;;;;;15.40;2.97;;;;;;;4.53;60.94;103045.56;5067051;28;20582;-56
2022/01/20 09:49:46;;;;;;;14.55;2.15;;;;;;;4.68;60.37;103055.53;5053583;28;20428;-53
2022/01/20 09:52:11;;;;;;;20.27;1.88;;;;;;;4.68;59.41;103052.94;5051208;28;20413;-55
2022/01/20 09:54:38;;;;;;;17.77;2.58;;;;;;;4.72;60.00;103061.75;5055022;28;20037;-54
2022/01/20 09:57:04;;;;;;;17.58;2.65;;;;;;;4.66;59.80;103068.56;5059959;28;20103;-56
2022/01/20 09:59:31;;;;;;;26.85;3.03;;;;;;;4.56;61.34;103082.22;5055323;28;20012;-56
2022/01/20 10:01:58;;;;;;;23.30;2.90;;;;;;;4.55;62.81;103093.50;5051315;28;20025;-60
2022/01/20 10:04:26;;;;;;;16.23;2.63;;;;;;;4.48;65.08;103087.22;5061024;28;20025;-55
2022/01/20 10:07:09;;;;;;;21.02;2.50;;;;;;;4.55;64.80;103080.44;5068154;28;20541;-56
2022/01/20 10:09:38;;;;;;;16.50;3.13;;;;;;;4.44;65.15;103095.81;5069139;28;20449;-57
2022/01/20 10:12:05;;;;;;;15.93;3.25;;;;;;;4.42;64.12;103100.09;5068118;28;20036;-57
2022/01/20 10:14:50;;;;;;;10.65;2.83;;;;;;;4.38;60.48;103109.56;5068569;28;20116;-56
2022/01/20 10:17:28;;;;;;;18.80;2.40;;;;;;;4.27;59.48;103116.19;5067996;28;20055;-56
2022/01/20 10:19:57;;;;;;;9.52;1.67;;;;;;;4.17;60.51;103108.13;5046335;28;20020;-55
2022/01/20 10:22:24;;;;;;;16.33;1.98;;;;;;;4.19;60.38;103107.25;5039572;28;20481;-58
2022/01/20 10:25:17;;;;;;;11.43;1.95;;;;;;;4.13;61.64;103113.19;5042440;28;20024;-57
2022/01/20 10:27:54;;;;;;;11.65;2.05;;;;;;;4.25;61.71;103117.88;5027069;28;20048;-56
2022/01/20 10:30:24;;;;;;;8.88;2.78;;;;;;;4.36;62.29;103120.81;5042564;28;20086;-57
2022/01/20 10:32:51;;;;;;;7.30;1.50;;;;;;;4.52;62.36;103122.13;5035252;28;20040;-57
2022/01/20 10:35:21;;;;;;;14.27;2.50;;;;;;;4.71;61.70;103128.75;5036606;28;20547;-57
2022/01/20 10:38:13;;;;;;;19.02;2.88;;;;;;;4.92;61.18;103127.56;5019312;28;20151;-56
2022/01/20 10:41:04;;;;;;;15.75;2.28;;;;;;;5.02;61.55;103131.31;5042935;28;20051;-55
2022/01/20 10:43:33;;;;;;;16.27;1.95;;;;;;;5.05;62.24;103139.22;5039893;28;20106;-58
2022/01/20 10:46:07;;;;;;;20.58;2.92;;;;;;;5.09;61.65;103125.38;5043951;28;20048;-57
2022/01/20 10:48:33;;;;;;;20.95;3.80;;;;;;;5.01;62.45;103138.28;5024604;28;20059;-56
2022/01/20 10:50:58;;;;;;;14.25;2.30;;;;;;;5.02;62.69;103142.66;5037038;28;20440;-56
2022/01/20 10:53:24;;;;;;;15.13;2.63;;;;;;;5.17;61.82;103143.88;5043433;28;20021;-58
2022/01/20 10:55:50;;;;;;;14.57;2.33;;;;;;;5.27;61.05;103145.03;5037564;28;20154;-59
2022/01/20 10:58:22;;;;;;;21.42;2.75;;;;;;;5.41;61.45;103143.63;5043630;28;20387;-55
2022/01/20 11:00:50;;;;;;;16.75;2.55;;;;;;;5.52;61.73;103146.53;5043650;28;20064;-56
2022/01/20 11:03:16;;;;;;;16.80;2.50;;;;;;;5.46;61.44;103161.16;5044663;28;20062;-58
2022/01/20 11:05:45;;;;;;;14.63;2.05;;;;;;;5.33;61.64;103147.81;5043985;28;20514;-58
2022/01/20 11:08:11;;;;;;;18.55;2.72;;;;;;;5.19;62.39;103147.44;5027920;28;20025;-56
2022/01/20 11:10:40;;;;;;;14.35;2.60;;;;;;;5.28;61.43;103137.22;5042385;28;20035;-56
2022/01/20 11:13:05;;;;;;;13.85;2.15;;;;;;;5.20;61.02;103149.19;5043335;28;20042;-57
2022/01/20 11:15:31;;;;;;;22.83;2.65;;;;;;;5.10;61.36;103144.56;5043373;28;20115;-59
2022/01/20 11:17:57;;;;;;;17.63;2.28;;;;;;;4.92;63.39;103158.91;5043945;28;20034;-56
2022/01/20 11:20:26;;;;;;;15.23;1.88;;;;;;;4.56;65.88;103178.81;5025980;28;20704;-56
2022/01/20 11:23:05;;;;;;;11.95;1.70;;;;;;;4.47;66.69;103176.84;5024614;28;20433;-59
2022/01/20 11:25:34;;;;;;;;;;;;;;;4.30;67.54;103153.72;5043939;28;20082;-56
2022/01/20 11:28:17;;;;;;;6.15;1.25;;;;;;;4.37;66.61;103156.53;5043870;28;19907;-56
2022/01/20 11:30:57;;;;;;;11.52;2.13;;;;;;;4.43;66.12;103157.56;5024649;28;20486;-59
2022/01/20 11:33:32;;;;;;;8.75;1.50;;;;;;;4.49;66.48;103153.38;5024233;28;20039;-56
2022/01/20 11:35:59;;;;;;;6.75;1.48;;;;;;;4.42;65.82;103141.84;5033728;28;20277;-57
2022/01/20 11:38:36;;;;;;;11.32;1.67;;;;;;;4.45;66.08;103149.78;5043414;28;20047;-57
2022/01/20 11:41:02;;;;;;;12.85;1.55;;;;;;;4.46;66.18;103145.47;5041365;28;20533;-56
2022/01/20 11:43:39;;;;;;;18.05;2.35;;;;;;;4.41;66.79;103134.88;5033088;28;20039;-56
2022/01/20 11:46:13;;;;;;;17.58;1.83;;;;;;;4.71;65.68;103123.53;5035642;28;20083;-56
2022/01/20 11:48:54;;;;;;;13.18;3.03;;;;;;;4.97;65.34;103119.84;5031931;28;20024;-57
2022/01/20 11:51:20;;;;;;;12.85;2.08;;;;;;;5.24;64.53;103114.44;5027808;28;20502;-57
2022/01/20 11:54:16;;;;;;;12.55;2.03;;;;;;;5.51;64.07;103115.97;5040373;28;20074;-56
2022/01/20 11:56:43;;;;;;;16.30;2.25;;;;;;;5.69;64.05;103101.59;5021115;28;20522;-59
2022/01/20 11:59:12;;;;;;;17.67;2.00;;;;;;;5.67;64.26;103113.72;5024813;28;20021;-56
2022/01/20 12:01:51;;;;;;;10.45;1.73;;;;;;;5.59;64.55;103107.41;5028856;28;20017;-56
2022/01/20 12:04:17;;;;;;;16.48;2.25;;;;;;;5.53;65.36;103095.09;5043969;28;20104;-55
2022/01/20 12:06:46;;;;;;;17.05;2.35;;;;;;;5.54;65.33;103099.50;5043534;28;20433;-58
2022/01/20 12:09:13;;;;;;;;;;;;;;;5.44;65.88;103093.13;5043402;28;20659;-59
2022/01/20 12:11:45;;;;;;;14.20;2.03;;;;;;;5.33;66.11;103103.38;5042718;28;19955;-55
2022/01/20 12:14:11;;;;;;;16.45;2.33;;;;;;;5.23;67.26;103096.09;5063926;28;20029;-54
2022/01/20 12:16:37;;;;;;;16.52;2.83;;;;;;;5.46;66.89;103088.84;5060803;28;20112;-56
2022/01/20 12:19:05;;;;;;;17.00;2.42;;;;;;;5.50;67.06;103085.44;5065364;28;20139;-58
2022/01/20 12:21:31;;;;;;;19.25;2.42;;;;;;;5.59;66.92;103074.31;5066573;28;20015;-55
2022/01/20 12:23:57;;;;;;;18.20;2.97;;;;;;;6.17;65.63;103083.47;5064627;28;20230;-55
2022/01/20 12:26:23;;;;;;;16.30;2.72;;;;;;;6.77;62.38;103088.97;5066652;28;20028;-57
2022/01/20 12:29:08;;;;;;;12.75;1.98;;;;;;;7.00;57.83;103088.50;5069898;28;20024;-58
2022/01/20 12:31:48;;;;;;;12.80;1.98;;;;;;;6.80;55.49;103086.41;5068566;28;20055;-57